Time,TemperatureF,DewpointF,PressureIn,WindDirection,WindDirectionDegrees,WindSpeedMPH,WindSpeedGustMPH,Humidity,HourlyPrecipIn,Conditions,Clouds,dailyrainin,SoftwareType,DateUTC
2013-05-08 00:01:00,56.1,49.6,30.01,NE,45,0.0,0.0,79,0.00,,,0.00,WUHU21623XXSP,2013-05-08 05:01:00,
2013-05-08 00:06:00,55.9,49.8,30.01,NE,45,0.0,0.0,80,0.00,,,0.00,WUHU21623XXSP,2013-05-08 05:06:00,
2013-05-08 00:11:00,55.9,49.8,30.01,NE,45,0.0,0.0,80,0.00,,,0.00,WUHU21623XXSP,2013-05-08 05:11:00,
2013-05-08 00:16:00,55.8,49.6,30.01,NE,45,0.0,0.0,80,0.00,,,0.00,WUHU21623XXSP,2013-05-08 05:16:00,
2013-05-08 00:21:00,55.6,49.5,30.01,NE,45,0.0,0.0,80,0.00,,,0.00,WUHU21623XXSP,2013-05-08 05:21:00,
2013-05-08 00:26:00,55.8,49.6,30.01,NE,45,0.0,0.0,80,0.00,,,0.00,WUHU21623XXSP,2013-05-08 05:26:00,
2013-05-08 00:31:00,55.6,49.8,30.01,NE,45,0.0,0.0,81,0.00,,,0.00,WUHU21623XXSP,2013-05-08 05:31:00,
2013-05-08 00:36:00,55.8,50.0,30.01,NE,45,0.0,0.0,81,0.00,,,0.00,WUHU21623XXSP,2013-05-08 05:36:00,
2013-05-08 00:41:00,55.6,49.8,30.00,NE,45,0.0,0.0,81,0.00,,,0.00,WUHU21623XXSP,2013-05-08 05:41:00,
2013-05-08 00:46:00,55.6,49.8,30.00,NE,45,0.0,0.0,81,0.00,,,0.00,WUHU21623XXSP,2013-05-08 05:46:00,
2013-05-08 00:51:00,55.2,49.4,30.00,NE,45,0.0,0.0,81,0.00,,,0.00,WUHU21623XXSP,2013-05-08 05:51:00,
2013-05-08 00:56:00,55.0,49.3,30.00,NE,45,0.0,0.0,81,0.00,,,0.00,WUHU21623XXSP,2013-05-08 05:56:00,
2013-05-08 01:01:00,54.9,49.1,30.01,NE,45,0.0,0.0,81,0.00,,,0.00,WUHU21623XXSP,2013-05-08 06:01:00,
2013-05-08 01:06:00,54.9,49.1,30.00,NE,45,0.0,0.0,81,0.00,,,0.00,WUHU21623XXSP,2013-05-08 06:06:00,
2013-05-08 01:11:00,54.9,49.4,30.00,NE,45,0.0,0.0,82,0.00,,,0.00,WUHU21623XXSP,2013-05-08 06:11:00,
2013-05-08 01:16:00,54.9,49.4,30.00,NE,45,0.0,0.0,82,0.00,,,0.00,WUHU21623XXSP,2013-05-08 06:16:00,
2013-05-08 01:21:00,54.9,49.4,30.00,NE,45,0.0,0.0,82,0.00,,,0.00,WUHU21623XXSP,2013-05-08 06:21:00,
2013-05-08 01:26:00,54.9,49.4,30.00,NE,45,0.0,0.0,82,0.00,,,0.00,WUHU21623XXSP,2013-05-08 06:26:00,
2013-05-08 01:31:00,54.9,49.4,30.00,NE,45,0.0,0.0,82,0.00,,,0.00,WUHU21623XXSP,2013-05-08 06:31:00,
2013-05-08 01:36:00,54.5,49.1,30.00,NE,45,0.0,0.0,82,0.00,,,0.00,WUHU21623XXSP,2013-05-08 06:36:00,
2013-05-08 01:41:00,54.5,49.1,30.00,NE,45,0.0,0.0,82,0.00,,,0.00,WUHU21623XXSP,2013-05-08 06:41:00,
2013-05-08 01:46:00,54.5,49.1,29.99,NE,45,0.0,0.0,82,0.00,,,0.00,WUHU21623XXSP,2013-05-08 06:46:00,
2013-05-08 01:51:00,54.3,49.2,29.99,NE,45,0.0,0.0,83,0.00,,,0.00,WUHU21623XXSP,2013-05-08 06:51:00,
2013-05-08 01:56:00,54.3,49.2,29.99,NE,45,0.0,0.0,83,0.00,,,0.00,WUHU21623XXSP,2013-05-08 06:56:00,
2013-05-08 02:01:00,54.3,49.2,29.99,NE,45,0.0,0.0,83,0.00,,,0.00,WUHU21623XXSP,2013-05-08 07:01:00,
2013-05-08 02:06:00,54.1,49.4,29.99,NE,45,0.0,0.0,84,0.00,,,0.00,WUHU21623XXSP,2013-05-08 07:06:00,
2013-05-08 02:11:00,54.0,49.4,29.99,NE,45,0.0,0.0,84,0.00,,,0.00,WUHU21623XXSP,2013-05-08 07:11:00,
2013-05-08 02:16:00,54.0,49.2,29.99,NE,45,0.0,0.0,84,0.00,,,0.00,WUHU21623XXSP,2013-05-08 07:16:00,
2013-05-08 02:21:00,54.0,49.2,29.99,NE,45,0.0,0.0,84,0.00,,,0.00,WUHU21623XXSP,2013-05-08 07:21:00,
2013-05-08 02:26:00,54.1,49.4,29.99,NE,45,0.0,0.0,84,0.00,,,0.00,WUHU21623XXSP,2013-05-08 07:26:00,
2013-05-08 02:31:00,54.0,49.5,29.99,NE,45,0.0,0.0,85,0.00,,,0.00,WUHU21623XXSP,2013-05-08 07:31:00,
2013-05-08 02:36:00,54.0,49.5,30.00,NE,45,0.0,0.0,85,0.00,,,0.00,WUHU21623XXSP,2013-05-08 07:36:00,
2013-05-08 02:41:00,53.8,49.4,30.00,NE,45,0.0,0.0,85,0.00,,,0.00,WUHU21623XXSP,2013-05-08 07:41:00,
2013-05-08 02:46:00,54.0,49.5,30.00,NE,45,0.0,0.0,85,0.00,,,0.00,WUHU21623XXSP,2013-05-08 07:46:00,
2013-05-08 02:51:00,54.0,49.5,30.00,NE,45,0.0,0.0,85,0.00,,,0.00,WUHU21623XXSP,2013-05-08 07:51:00,
2013-05-08 02:56:00,54.0,49.5,30.00,NE,45,0.0,0.0,85,0.00,,,0.00,WUHU21623XXSP,2013-05-08 07:56:00,
2013-05-08 03:01:00,54.0,49.5,30.00,NE,45,0.0,0.0,85,0.00,,,0.00,WUHU21623XXSP,2013-05-08 08:01:00,
2013-05-08 03:06:00,54.0,49.5,29.99,NE,45,0.0,0.0,85,0.00,,,0.00,WUHU21623XXSP,2013-05-08 08:06:00,
2013-05-08 03:11:00,54.0,49.5,30.00,NE,45,0.0,0.0,85,0.00,,,0.00,WUHU21623XXSP,2013-05-08 08:11:00,
2013-05-08 03:16:00,53.8,49.4,29.99,NE,45,0.0,0.0,85,0.00,,,0.00,WUHU21623XXSP,2013-05-08 08:16:00,
2013-05-08 03:21:00,53.8,49.4,29.99,NE,45,0.0,0.0,85,0.00,,,0.00,WUHU21623XXSP,2013-05-08 08:21:00,
2013-05-08 03:26:00,53.6,49.2,29.99,NE,45,0.0,0.0,85,0.00,,,0.00,WUHU21623XXSP,2013-05-08 08:26:00,
2013-05-08 03:31:00,53.6,49.2,29.99,NE,45,0.0,0.0,85,0.00,,,0.00,WUHU21623XXSP,2013-05-08 08:31:00,
2013-05-08 03:36:00,53.6,49.2,29.99,NE,45,0.0,0.0,85,0.00,,,0.00,WUHU21623XXSP,2013-05-08 08:36:00,
2013-05-08 03:41:00,53.6,49.5,29.99,NE,45,0.0,0.0,86,0.00,,,0.00,WUHU21623XXSP,2013-05-08 08:41:00,
2013-05-08 03:46:00,53.4,49.3,30.00,NE,45,0.0,0.0,86,0.00,,,0.00,WUHU21623XXSP,2013-05-08 08:46:00,
2013-05-08 03:51:00,53.2,48.8,30.00,NE,45,0.0,0.0,85,0.00,,,0.00,WUHU21623XXSP,2013-05-08 08:51:00,
2013-05-08 03:56:00,53.2,48.8,30.00,NE,45,0.0,0.0,85,0.00,,,0.00,WUHU21623XXSP,2013-05-08 08:56:00,
2013-05-08 04:01:00,53.1,48.7,30.00,NE,45,0.0,0.0,85,0.00,,,0.00,WUHU21623XXSP,2013-05-08 09:01:00,
2013-05-08 04:06:00,53.2,49.1,30.00,NE,45,0.0,0.0,86,0.00,,,0.00,WUHU21623XXSP,2013-05-08 09:06:00,
2013-05-08 04:11:00,53.1,49.0,30.00,NE,45,0.0,0.0,86,0.00,,,0.00,WUHU21623XXSP,2013-05-08 09:11:00,
2013-05-08 04:16:00,53.1,49.0,30.00,NE,45,0.0,0.0,86,0.00,,,0.00,WUHU21623XXSP,2013-05-08 09:16:00,
2013-05-08 04:21:00,53.1,49.0,30.00,NE,45,0.0,0.0,86,0.00,,,0.00,WUHU21623XXSP,2013-05-08 09:21:00,
2013-05-08 04:26:00,53.1,49.0,30.00,NE,45,0.0,0.0,86,0.00,,,0.00,WUHU21623XXSP,2013-05-08 09:26:00,
2013-05-08 04:31:00,52.9,48.8,30.01,NE,45,0.0,0.0,86,0.00,,,0.00,WUHU21623XXSP,2013-05-08 09:31:00,
2013-05-08 04:36:00,52.9,48.8,30.00,NE,45,0.0,0.0,86,0.00,,,0.00,WUHU21623XXSP,2013-05-08 09:36:00,
2013-05-08 04:41:00,52.7,48.6,30.00,NE,45,0.0,0.0,86,0.00,,,0.00,WUHU21623XXSP,2013-05-08 09:41:00,
2013-05-08 04:46:00,52.7,48.6,30.01,NE,45,0.0,0.0,86,0.00,,,0.00,WUHU21623XXSP,2013-05-08 09:46:00,
2013-05-08 04:51:00,52.9,48.8,30.00,NE,45,0.0,0.0,86,0.00,,,0.00,WUHU21623XXSP,2013-05-08 09:51:00,
2013-05-08 04:56:00,52.9,48.8,30.00,NE,45,0.0,0.0,86,0.00,,,0.00,WUHU21623XXSP,2013-05-08 09:56:00,
2013-05-08 05:01:00,52.9,48.8,30.00,NE,45,0.0,0.0,86,0.00,,,0.00,WUHU21623XXSP,2013-05-08 10:01:00,
2013-05-08 05:06:00,52.9,48.8,30.00,NE,45,0.0,0.0,86,0.00,,,0.00,WUHU21623XXSP,2013-05-08 10:06:00,
2013-05-08 05:11:00,52.7,48.6,30.01,NE,45,0.0,0.0,86,0.00,,,0.00,WUHU21623XXSP,2013-05-08 10:11:00,
2013-05-08 05:16:00,52.7,48.6,30.01,NE,45,0.0,0.0,86,0.00,,,0.00,WUHU21623XXSP,2013-05-08 10:16:00,
2013-05-08 05:21:00,52.7,48.6,30.01,NE,45,0.0,0.0,86,0.00,,,0.00,WUHU21623XXSP,2013-05-08 10:21:00,
2013-05-08 05:26:00,52.7,48.8,30.01,NE,45,0.0,0.0,86,0.00,,,0.00,WUHU21623XXSP,2013-05-08 10:26:00,
2013-05-08 05:31:00,52.7,48.6,30.01,NE,45,0.0,0.0,86,0.00,,,0.00,WUHU21623XXSP,2013-05-08 10:31:00,
2013-05-08 05:36:00,52.7,48.6,30.01,NE,45,0.0,0.0,86,0.00,,,0.00,WUHU21623XXSP,2013-05-08 10:36:00,
2013-05-08 05:41:00,52.7,48.6,30.01,NE,45,0.0,0.0,86,0.00,,,0.00,WUHU21623XXSP,2013-05-08 10:41:00,
2013-05-08 05:46:00,52.7,49.2,30.01,NE,45,0.0,0.0,88,0.00,,,0.00,WUHU21623XXSP,2013-05-08 10:46:00,
2013-05-08 05:51:00,52.7,48.9,30.01,NE,45,0.0,0.0,87,0.00,,,0.00,WUHU21623XXSP,2013-05-08 10:51:00,
2013-05-08 05:56:00,52.7,48.9,30.01,NE,45,0.0,0.0,87,0.00,,,0.00,WUHU21623XXSP,2013-05-08 10:56:00,
2013-05-08 06:01:00,52.7,48.9,30.01,NE,45,0.0,0.0,87,0.00,,,0.00,WUHU21623XXSP,2013-05-08 11:01:00,
2013-05-08 06:06:00,52.7,48.9,30.01,NE,45,0.0,0.0,87,0.00,,,0.00,WUHU21623XXSP,2013-05-08 11:06:00,
2013-05-08 06:11:00,52.7,48.9,30.02,NE,45,0.0,0.0,87,0.00,,,0.00,WUHU21623XXSP,2013-05-08 11:11:00,
2013-05-08 06:16:00,52.7,48.9,30.02,NE,45,0.0,0.0,87,0.00,,,0.00,WUHU21623XXSP,2013-05-08 11:16:00,
2013-05-08 06:21:00,52.7,48.9,30.02,NE,45,0.0,0.0,87,0.00,,,0.00,WUHU21623XXSP,2013-05-08 11:21:00,
2013-05-08 06:26:00,52.5,48.7,30.02,NE,45,0.0,0.0,87,0.00,,,0.00,WUHU21623XXSP,2013-05-08 11:26:00,
2013-05-08 06:31:00,52.5,49.0,30.03,NE,45,0.0,0.0,88,0.00,,,0.00,WUHU21623XXSP,2013-05-08 11:31:00,
2013-05-08 06:36:00,52.5,49.0,30.03,NE,45,0.0,0.0,88,0.00,,,0.00,WUHU21623XXSP,2013-05-08 11:36:00,
2013-05-08 06:41:00,52.5,48.7,30.03,NE,45,0.0,0.0,87,0.00,,,0.00,WUHU21623XXSP,2013-05-08 11:41:00,
2013-05-08 06:46:00,52.7,48.9,30.03,NE,45,0.0,0.0,87,0.00,,,0.00,WUHU21623XXSP,2013-05-08 11:46:00,
2013-05-08 06:51:00,52.9,49.1,30.03,NE,45,0.0,0.0,87,0.00,,,0.00,WUHU21623XXSP,2013-05-08 11:51:00,
2013-05-08 06:56:00,52.9,49.4,30.03,NE,45,0.0,0.0,88,0.00,,,0.00,WUHU21623XXSP,2013-05-08 11:56:00,
2013-05-08 07:01:00,53.1,49.4,30.03,NE,45,0.0,0.0,88,0.00,,,0.00,WUHU21623XXSP,2013-05-08 12:01:00,
2013-05-08 07:06:00,53.2,49.7,30.03,NE,45,0.0,0.0,88,0.00,,,0.00,WUHU21623XXSP,2013-05-08 12:06:00,
2013-05-08 07:11:00,53.6,50.1,30.03,NE,45,0.0,0.0,88,0.00,,,0.00,WUHU21623XXSP,2013-05-08 12:11:00,
2013-05-08 07:16:00,53.8,50.3,30.03,NE,45,0.0,0.0,88,0.00,,,0.00,WUHU21623XXSP,2013-05-08 12:16:00,
2013-05-08 07:21:00,54.1,50.9,30.04,NE,45,0.0,0.0,89,0.00,,,0.00,WUHU21623XXSP,2013-05-08 12:21:00,
2013-05-08 07:26:00,54.5,51.3,30.04,NE,45,0.0,0.0,89,0.00,,,0.00,WUHU21623XXSP,2013-05-08 12:26:00,
2013-05-08 07:31:00,55.2,52.3,30.04,NE,45,0.0,0.0,90,0.00,,,0.00,WUHU21623XXSP,2013-05-08 12:31:00,
2013-05-08 07:36:00,56.3,53.4,30.04,NE,45,0.0,0.0,90,0.00,,,0.00,WUHU21623XXSP,2013-05-08 12:36:00,
2013-05-08 07:41:00,56.8,54.0,30.04,NE,45,0.0,0.0,90,0.00,,,0.00,WUHU21623XXSP,2013-05-08 12:41:00,
2013-05-08 07:46:00,57.4,54.5,30.05,NE,45,0.0,0.0,90,0.00,,,0.00,WUHU21623XXSP,2013-05-08 12:46:00,
2013-05-08 07:51:00,58.1,55.5,30.05,NE,45,0.0,0.0,91,0.00,,,0.00,WUHU21623XXSP,2013-05-08 12:51:00,
2013-05-08 07:56:00,58.6,55.8,30.05,NE,45,0.0,0.0,90,0.00,,,0.00,WUHU21623XXSP,2013-05-08 12:56:00,
2013-05-08 08:01:00,58.8,55.9,30.05,NE,45,0.0,0.0,90,0.00,,,0.00,WUHU21623XXSP,2013-05-08 13:01:00,
2013-05-08 08:06:00,59.4,56.5,30.05,NE,45,0.0,0.0,90,0.00,,,0.00,WUHU21623XXSP,2013-05-08 13:06:00,
2013-05-08 08:11:00,59.7,57.1,30.05,NE,45,0.0,0.0,91,0.00,,,0.00,WUHU21623XXSP,2013-05-08 13:11:00,
2013-05-08 08:16:00,59.9,57.0,30.05,NE,45,0.0,0.0,90,0.00,,,0.00,WUHU21623XXSP,2013-05-08 13:16:00,
2013-05-08 08:21:00,60.3,57.4,30.05,NNE,22,0.0,0.0,90,0.00,,,0.00,WUHU21623XXSP,2013-05-08 13:21:00,
2013-05-08 08:26:00,61.0,58.4,30.06,NNE,22,0.0,0.0,91,0.00,,,0.00,WUHU21623XXSP,2013-05-08 13:26:00,
2013-05-08 08:31:00,61.5,58.9,30.06,NNE,22,0.0,0.0,91,0.00,,,0.00,WUHU21623XXSP,2013-05-08 13:31:00,
2013-05-08 08:36:00,62.2,59.6,30.05,NW,315,0.0,0.0,91,0.00,,,0.00,WUHU21623XXSP,2013-05-08 13:36:00,
2013-05-08 08:41:00,63.0,60.4,30.05,NW,315,0.0,0.0,91,0.00,,,0.00,WUHU21623XXSP,2013-05-08 13:41:00,
2013-05-08 08:46:00,63.5,60.9,30.05,NW,315,0.0,0.0,91,0.00,,,0.00,WUHU21623XXSP,2013-05-08 13:46:00,
2013-05-08 08:51:00,64.8,61.8,30.06,WNW,292,0.0,0.0,90,0.00,,,0.00,WUHU21623XXSP,2013-05-08 13:51:00,
2013-05-08 08:56:00,65.3,62.0,30.06,NW,315,0.0,0.0,89,0.00,,,0.00,WUHU21623XXSP,2013-05-08 13:56:00,
2013-05-08 09:01:00,65.8,61.5,30.06,WSW,247,0.0,0.0,86,0.00,,,0.00,WUHU21623XXSP,2013-05-08 14:01:00,
2013-05-08 09:06:00,66.9,61.9,30.06,NW,315,0.0,0.0,84,0.00,,,0.00,WUHU21623XXSP,2013-05-08 14:06:00,
2013-05-08 09:11:00,67.6,62.0,30.06,NNW,337,0.0,0.0,82,0.00,,,0.00,WUHU21623XXSP,2013-05-08 14:11:00,
2013-05-08 09:16:00,68.2,61.5,30.06,WNW,292,0.0,0.0,79,0.00,,,0.00,WUHU21623XXSP,2013-05-08 14:16:00,
2013-05-08 09:21:00,68.5,61.1,30.07,WNW,292,0.0,0.0,77,0.00,,,0.00,WUHU21623XXSP,2013-05-08 14:21:00,
2013-05-08 09:26:00,68.9,61.0,30.07,WNW,292,0.0,0.0,76,0.00,,,0.00,WUHU21623XXSP,2013-05-08 14:26:00,
2013-05-08 09:31:00,69.3,60.6,30.07,SW,225,0.0,0.0,74,0.00,,,0.00,WUHU21623XXSP,2013-05-08 14:31:00,
2013-05-08 09:36:00,69.8,60.3,30.07,West,270,0.0,0.0,72,0.00,,,0.00,WUHU21623XXSP,2013-05-08 14:36:00,
2013-05-08 09:41:00,70.2,60.3,30.07,West,270,0.0,0.0,71,0.00,,,0.00,WUHU21623XXSP,2013-05-08 14:41:00,
2013-05-08 09:46:00,70.9,60.2,30.07,NW,315,0.0,0.0,69,0.00,,,0.00,WUHU21623XXSP,2013-05-08 14:46:00,
2013-05-08 09:51:00,71.1,59.9,30.07,WNW,292,0.0,0.0,68,0.00,,,0.00,WUHU21623XXSP,2013-05-08 14:51:00,
2013-05-08 09:56:00,71.4,59.9,30.07,NW,315,0.0,0.0,67,0.00,,,0.00,WUHU21623XXSP,2013-05-08 14:56:00,
2013-05-08 10:01:00,71.8,59.3,30.07,WNW,292,0.0,0.0,65,0.00,,,0.00,WUHU21623XXSP,2013-05-08 15:01:00,
2013-05-08 10:06:00,72.0,59.5,30.07,SW,225,0.0,0.0,65,0.00,,,0.00,WUHU21623XXSP,2013-05-08 15:06:00,
2013-05-08 10:11:00,72.3,59.4,30.07,WNW,292,0.0,0.0,64,0.00,,,0.00,WUHU21623XXSP,2013-05-08 15:11:00,
2013-05-08 10:16:00,72.5,58.7,30.08,NE,45,0.0,0.0,62,0.00,,,0.00,WUHU21623XXSP,2013-05-08 15:16:00,
2013-05-08 10:21:00,72.9,58.6,30.08,NW,315,0.0,0.0,61,0.00,,,0.00,WUHU21623XXSP,2013-05-08 15:21:00,
2013-05-08 10:26:00,73.0,58.3,30.07,WNW,292,0.0,0.0,60,0.00,,,0.00,WUHU21623XXSP,2013-05-08 15:26:00,
2013-05-08 10:31:00,73.6,58.8,30.08,WNW,292,0.0,0.0,60,0.00,,,0.00,WUHU21623XXSP,2013-05-08 15:31:00,
2013-05-08 10:36:00,73.8,58.5,30.07,WNW,292,0.0,0.0,59,0.00,,,0.00,WUHU21623XXSP,2013-05-08 15:36:00,
2013-05-08 10:41:00,74.1,58.9,30.07,WNW,292,0.0,0.0,59,0.00,,,0.00,WUHU21623XXSP,2013-05-08 15:41:00,
2013-05-08 10:46:00,74.3,57.5,30.07,NW,315,0.0,0.0,56,0.00,,,0.00,WUHU21623XXSP,2013-05-08 15:46:00,
2013-05-08 10:51:00,74.5,57.7,30.07,WNW,292,0.0,0.0,56,0.00,,,0.00,WUHU21623XXSP,2013-05-08 15:51:00,
2013-05-08 10:56:00,74.7,57.9,30.07,West,270,0.0,0.0,56,0.00,,,0.00,WUHU21623XXSP,2013-05-08 15:56:00,
2013-05-08 11:01:00,74.8,57.6,30.07,ESE,112,0.0,0.0,55,0.00,,,0.00,WUHU21623XXSP,2013-05-08 16:01:00,
2013-05-08 11:06:00,75.6,58.9,30.07,ESE,112,0.0,0.0,57,0.00,,,0.00,WUHU21623XXSP,2013-05-08 16:06:00,
2013-05-08 11:11:00,75.9,58.6,30.07,WNW,292,0.0,0.0,55,0.00,,,0.00,WUHU21623XXSP,2013-05-08 16:11:00,
2013-05-08 11:16:00,76.1,58.2,30.07,WNW,292,0.0,0.0,54,0.00,,,0.00,WUHU21623XXSP,2013-05-08 16:16:00,
2013-05-08 11:21:00,76.1,57.7,30.07,SE,135,0.0,0.0,53,0.00,,,0.00,WUHU21623XXSP,2013-05-08 16:21:00,
2013-05-08 11:26:00,76.5,58.5,30.07,SSE,157,0.0,0.0,54,0.00,,,0.00,WUHU21623XXSP,2013-05-08 16:26:00,
2013-05-08 11:31:00,77.4,59.4,30.07,WNW,292,0.0,0.0,54,0.00,,,0.00,WUHU21623XXSP,2013-05-08 16:31:00,
2013-05-08 11:36:00,77.5,59.0,30.07,SW,225,0.0,0.0,53,0.00,,,0.00,WUHU21623XXSP,2013-05-08 16:36:00,
2013-05-08 11:41:00,77.4,58.4,30.07,WNW,292,0.0,0.0,52,0.00,,,0.00,WUHU21623XXSP,2013-05-08 16:41:00,
2013-05-08 11:46:00,76.6,56.7,30.07,WNW,292,0.0,0.0,50,0.00,,,0.00,WUHU21623XXSP,2013-05-08 16:46:00,
2013-05-08 11:51:00,76.3,56.4,30.07,WNW,292,0.0,0.0,50,0.00,,,0.00,WUHU21623XXSP,2013-05-08 16:51:00,
2013-05-08 11:56:00,75.9,56.0,30.07,West,270,0.0,0.0,50,0.00,,,0.00,WUHU21623XXSP,2013-05-08 16:56:00,
2013-05-08 12:01:00,75.4,57.1,30.07,NNW,337,0.0,0.0,53,0.00,,,0.00,WUHU21623XXSP,2013-05-08 17:01:00,
2013-05-08 12:06:00,75.7,57.4,30.07,WNW,292,0.0,0.0,53,0.00,,,0.00,WUHU21623XXSP,2013-05-08 17:06:00,
2013-05-08 12:11:00,75.9,57.6,30.06,West,270,0.0,0.0,53,0.00,,,0.00,WUHU21623XXSP,2013-05-08 17:11:00,
2013-05-08 12:16:00,76.5,57.2,30.06,WNW,292,0.0,0.0,52,0.00,,,0.00,WUHU21623XXSP,2013-05-08 17:16:00,
2013-05-08 12:21:00,77.4,58.4,30.06,WNW,292,0.0,0.0,52,0.00,,,0.00,WUHU21623XXSP,2013-05-08 17:21:00,
2013-05-08 12:26:00,77.9,58.3,30.07,West,270,0.0,0.0,51,0.00,,,0.00,WUHU21623XXSP,2013-05-08 17:26:00,
2013-05-08 12:31:00,78.3,57.5,30.07,West,270,0.0,0.0,49,0.00,,,0.00,WUHU21623XXSP,2013-05-08 17:31:00,
2013-05-08 12:36:00,78.4,57.7,30.06,WNW,292,0.0,0.0,49,0.00,,,0.00,WUHU21623XXSP,2013-05-08 17:36:00,
2013-05-08 12:41:00,78.4,57.1,30.06,NNE,22,0.0,0.0,48,0.00,,,0.00,WUHU21623XXSP,2013-05-08 17:41:00,
2013-05-08 12:46:00,78.6,57.9,30.07,WNW,292,0.0,0.0,49,0.00,,,0.00,WUHU21623XXSP,2013-05-08 17:46:00,
2013-05-08 12:51:00,78.8,57.4,30.07,NNW,337,0.0,0.0,48,0.00,,,0.00,WUHU21623XXSP,2013-05-08 17:51:00,
2013-05-08 12:56:00,78.8,56.8,30.06,West,270,0.0,0.0,47,0.00,,,0.00,WUHU21623XXSP,2013-05-08 17:56:00,
2013-05-08 13:01:00,78.4,56.5,30.06,WNW,292,0.0,0.0,47,0.00,,,0.00,WUHU21623XXSP,2013-05-08 18:01:00,
2013-05-08 13:06:00,78.3,56.9,30.06,NNE,22,0.0,0.0,48,0.00,,,0.00,WUHU21623XXSP,2013-05-08 18:06:00,
2013-05-08 13:11:00,79.0,58.2,30.06,NNW,337,0.0,0.0,49,0.00,,,0.00,WUHU21623XXSP,2013-05-08 18:11:00,
2013-05-08 13:16:00,79.0,57.6,30.06,NW,315,0.0,0.0,48,0.00,,,0.00,WUHU21623XXSP,2013-05-08 18:16:00,
2013-05-08 13:21:00,78.4,56.5,30.06,WNW,292,0.0,0.0,47,0.00,,,0.00,WUHU21623XXSP,2013-05-08 18:21:00,
2013-05-08 13:26:00,78.4,57.1,30.06,NW,315,0.0,0.0,48,0.00,,,0.00,WUHU21623XXSP,2013-05-08 18:26:00,
2013-05-08 13:31:00,78.4,57.1,30.06,WNW,292,0.0,0.0,48,0.00,,,0.00,WUHU21623XXSP,2013-05-08 18:31:00,
2013-05-08 13:36:00,79.0,58.2,30.05,WNW,292,0.0,0.0,49,0.00,,,0.00,WUHU21623XXSP,2013-05-08 18:36:00,
2013-05-08 13:41:00,79.0,57.6,30.05,NNW,337,0.0,0.0,48,0.00,,,0.00,WUHU21623XXSP,2013-05-08 18:41:00,
2013-05-08 13:46:00,79.2,57.1,30.05,WNW,292,3.6,3.6,47,0.00,,,0.00,WUHU21623XXSP,2013-05-08 18:46:00,
2013-05-08 13:51:00,79.2,57.1,30.05,NW,315,6.3,6.3,47,0.00,,,0.00,WUHU21623XXSP,2013-05-08 18:51:00,
2013-05-08 13:56:00,79.7,58.2,30.05,ENE,67,0.0,6.3,48,0.00,,,0.00,WUHU21623XXSP,2013-05-08 18:56:00,
2013-05-08 14:01:00,80.1,57.3,30.05,ENE,67,2.0,3.6,46,0.00,,,0.00,WUHU21623XXSP,2013-05-08 19:01:00,
2013-05-08 14:06:00,80.2,57.5,30.05,WNW,292,0.0,3.6,46,0.00,,,0.00,WUHU21623XXSP,2013-05-08 19:06:00,
2013-05-08 14:11:00,80.2,57.5,30.04,NNW,337,2.0,2.0,46,0.00,,,0.00,WUHU21623XXSP,2013-05-08 19:11:00,
2013-05-08 14:16:00,79.9,56.6,30.04,NNW,337,0.0,2.9,45,0.00,,,0.00,WUHU21623XXSP,2013-05-08 19:16:00,
2013-05-08 14:21:00,79.5,57.5,30.04,WNW,292,1.3,2.9,47,0.00,,,0.00,WUHU21623XXSP,2013-05-08 19:21:00,
2013-05-08 14:26:00,80.1,57.9,30.04,WNW,292,3.4,3.6,47,0.00,,,0.00,WUHU21623XXSP,2013-05-08 19:26:00,
2013-05-08 14:31:00,80.4,57.7,30.04,West,270,0.0,3.6,46,0.00,,,0.00,WUHU21623XXSP,2013-05-08 19:31:00,
2013-05-08 14:36:00,80.4,57.0,30.04,WNW,292,0.0,3.8,45,0.00,,,0.00,WUHU21623XXSP,2013-05-08 19:36:00,
2013-05-08 14:41:00,80.4,57.0,30.04,WNW,292,3.4,3.8,45,0.00,,,0.00,WUHU21623XXSP,2013-05-08 19:41:00,
2013-05-08 14:46:00,80.6,56.6,30.04,NW,315,0.0,3.4,44,0.00,,,0.00,WUHU21623XXSP,2013-05-08 19:46:00,
2013-05-08 14:51:00,80.8,56.8,30.03,NW,315,0.0,0.0,44,0.00,,,0.00,WUHU21623XXSP,2013-05-08 19:51:00,
2013-05-08 14:56:00,81.5,58.0,30.03,ENE,67,0.0,0.0,45,0.00,,,0.00,WUHU21623XXSP,2013-05-08 19:56:00,
2013-05-08 15:01:00,82.6,60.2,30.02,East,90,0.0,0.0,47,0.00,,,0.00,WUHU21623XXSP,2013-05-08 20:01:00,
2013-05-08 15:06:00,83.1,59.5,30.03,WNW,292,0.0,0.0,45,0.00,,,0.00,WUHU21623XXSP,2013-05-08 20:06:00,
2013-05-08 15:11:00,82.8,57.9,30.03,WNW,292,2.0,2.0,43,0.00,,,0.00,WUHU21623XXSP,2013-05-08 20:11:00,
2013-05-08 15:16:00,82.8,58.5,30.03,NW,315,0.0,2.0,44,0.00,,,0.00,WUHU21623XXSP,2013-05-08 20:16:00,
2013-05-08 15:21:00,82.8,57.9,30.02,NW,315,1.3,5.1,43,0.00,,,0.00,WUHU21623XXSP,2013-05-08 20:21:00,
2013-05-08 15:26:00,82.8,57.3,30.03,NW,315,4.3,5.1,42,0.00,,,0.00,WUHU21623XXSP,2013-05-08 20:26:00,
2013-05-08 15:31:00,82.6,57.1,30.02,WNW,292,0.0,4.3,42,0.00,,,0.00,WUHU21623XXSP,2013-05-08 20:31:00,
2013-05-08 15:36:00,82.2,56.8,30.02,NW,315,6.5,6.5,42,0.00,,,0.00,WUHU21623XXSP,2013-05-08 20:36:00,
2013-05-08 15:41:00,82.0,56.7,30.02,NW,315,3.6,6.5,42,0.00,,,0.00,WUHU21623XXSP,2013-05-08 20:41:00,
2013-05-08 15:46:00,82.0,56.0,30.02,West,270,4.0,4.0,41,0.00,,,0.00,WUHU21623XXSP,2013-05-08 20:46:00,
2013-05-08 15:51:00,82.0,55.4,30.02,North,0,0.0,4.0,40,0.00,,,0.00,WUHU21623XXSP,2013-05-08 20:51:00,
2013-05-08 15:56:00,81.9,55.3,30.02,North,0,1.6,6.5,40,0.00,,,0.00,WUHU21623XXSP,2013-05-08 20:56:00,
2013-05-08 16:01:00,82.0,56.7,30.02,South,180,0.0,6.5,42,0.00,,,0.00,WUHU21623XXSP,2013-05-08 21:01:00,
2013-05-08 16:06:00,83.1,57.0,30.02,WNW,292,1.6,1.6,41,0.00,,,0.00,WUHU21623XXSP,2013-05-08 21:06:00,
2013-05-08 16:11:00,83.3,55.8,30.02,NW,315,2.0,2.0,39,0.00,,,0.00,WUHU21623XXSP,2013-05-08 21:11:00,
2013-05-08 16:16:00,83.1,55.6,30.02,NW,315,0.0,2.5,39,0.00,,,0.00,WUHU21623XXSP,2013-05-08 21:16:00,
2013-05-08 16:21:00,82.9,56.9,30.02,WNW,292,0.0,3.8,41,0.00,,,0.00,WUHU21623XXSP,2013-05-08 21:21:00,
2013-05-08 16:26:00,83.1,55.6,30.02,NW,315,2.5,3.8,39,0.00,,,0.00,WUHU21623XXSP,2013-05-08 21:26:00,
2013-05-08 16:31:00,83.1,57.0,30.01,West,270,4.9,4.9,41,0.00,,,0.00,WUHU21623XXSP,2013-05-08 21:31:00,
2013-05-08 16:36:00,83.3,55.8,30.01,NNW,337,1.1,5.6,39,0.00,,,0.00,WUHU21623XXSP,2013-05-08 21:36:00,
2013-05-08 16:41:00,83.1,55.6,30.01,NNW,337,0.0,5.6,39,0.00,,,0.00,WUHU21623XXSP,2013-05-08 21:41:00,
2013-05-08 16:46:00,83.1,55.6,30.01,WNW,292,4.7,4.7,39,0.00,,,0.00,WUHU21623XXSP,2013-05-08 21:46:00,
2013-05-08 16:51:00,82.8,54.5,30.01,WNW,292,0.0,4.7,38,0.00,,,0.00,WUHU21623XXSP,2013-05-08 21:51:00,
2013-05-08 16:56:00,82.8,55.3,30.01,West,270,0.0,3.8,39,0.00,,,0.00,WUHU21623XXSP,2013-05-08 21:56:00,
2013-05-08 17:01:00,83.1,55.6,30.01,West,270,1.3,3.8,39,0.00,,,0.00,WUHU21623XXSP,2013-05-08 22:01:00,
2013-05-08 17:06:00,82.8,52.9,30.01,West,270,0.0,6.0,36,0.00,,,0.00,WUHU21623XXSP,2013-05-08 22:06:00,
2013-05-08 17:11:00,82.9,54.7,30.02,NW,315,2.0,6.0,38,0.00,,,0.00,WUHU21623XXSP,2013-05-08 22:11:00,
2013-05-08 17:16:00,83.1,54.0,30.02,NW,315,4.9,4.9,37,0.00,,,0.00,WUHU21623XXSP,2013-05-08 22:16:00,
2013-05-08 17:21:00,82.6,52.8,30.02,NW,315,4.5,4.9,36,0.00,,,0.00,WUHU21623XXSP,2013-05-08 22:21:00,
2013-05-08 17:26:00,82.6,52.8,30.02,WNW,292,0.0,4.5,36,0.00,,,0.00,WUHU21623XXSP,2013-05-08 22:26:00,
2013-05-08 17:31:00,82.6,53.5,30.02,WNW,292,3.6,4.5,37,0.00,,,0.00,WUHU21623XXSP,2013-05-08 22:31:00,
2013-05-08 17:36:00,82.2,53.2,30.02,West,270,1.6,3.6,37,0.00,,,0.00,WUHU21623XXSP,2013-05-08 22:36:00,
2013-05-08 17:41:00,82.0,53.9,30.02,WSW,247,2.2,2.2,38,0.00,,,0.00,WUHU21623XXSP,2013-05-08 22:41:00,
2013-05-08 17:46:00,81.9,54.5,30.02,West,270,0.0,2.2,39,0.00,,,0.00,WUHU21623XXSP,2013-05-08 22:46:00,
2013-05-08 17:51:00,81.5,54.2,30.02,WNW,292,0.0,0.0,39,0.00,,,0.00,WUHU21623XXSP,2013-05-08 22:51:00,
2013-05-08 17:56:00,81.7,54.3,30.01,WNW,292,0.0,0.0,39,0.00,,,0.00,WUHU21623XXSP,2013-05-08 22:56:00,
2013-05-08 18:01:00,81.7,54.3,30.01,WNW,292,1.6,1.6,39,0.00,,,0.00,WUHU21623XXSP,2013-05-08 23:01:00,
2013-05-08 18:06:00,82.0,55.4,30.01,NW,315,0.0,1.6,40,0.00,,,0.00,WUHU21623XXSP,2013-05-08 23:06:00,
2013-05-08 18:11:00,82.4,55.0,30.01,WNW,292,2.9,2.9,39,0.00,,,0.00,WUHU21623XXSP,2013-05-08 23:11:00,
2013-05-08 18:16:00,82.0,54.6,30.01,West,270,0.0,2.9,39,0.00,,,0.00,WUHU21623XXSP,2013-05-08 23:16:00,
2013-05-08 18:21:00,82.2,55.6,30.01,NNW,337,0.0,0.9,40,0.00,,,0.00,WUHU21623XXSP,2013-05-08 23:21:00,
2013-05-08 18:26:00,81.9,54.5,30.01,NNW,337,0.0,0.0,39,0.00,,,0.00,WUHU21623XXSP,2013-05-08 23:26:00,
2013-05-08 18:31:00,81.5,54.2,30.00,WNW,292,1.1,1.1,39,0.00,,,0.00,WUHU21623XXSP,2013-05-08 23:31:00,
2013-05-08 18:36:00,81.1,54.6,30.00,WNW,292,0.0,1.1,40,0.00,,,0.00,WUHU21623XXSP,2013-05-08 23:36:00,
2013-05-08 18:41:00,81.0,54.5,30.01,West,270,0.0,3.1,40,0.00,,,0.00,WUHU21623XXSP,2013-05-08 23:41:00,
2013-05-08 18:46:00,80.8,54.9,30.00,West,270,0.0,3.1,41,0.00,,,0.00,WUHU21623XXSP,2013-05-08 23:46:00,
2013-05-08 18:51:00,80.4,54.6,30.00,WNW,292,2.9,2.9,41,0.00,,,0.00,WUHU21623XXSP,2013-05-08 23:51:00,
2013-05-08 18:56:00,80.1,54.3,30.00,WNW,292,0.0,2.9,41,0.00,,,0.00,WUHU21623XXSP,2013-05-08 23:56:00,
2013-05-08 19:01:00,79.9,54.1,30.01,West,270,0.0,1.8,41,0.00,,,0.00,WUHU21623XXSP,2013-05-09 00:01:00,
2013-05-08 19:06:00,79.3,54.2,30.01,WNW,292,0.0,0.0,42,0.00,,,0.00,WUHU21623XXSP,2013-05-09 00:06:00,
2013-05-08 19:11:00,79.2,54.1,30.00,WNW,292,0.0,0.0,42,0.00,,,0.00,WUHU21623XXSP,2013-05-09 00:11:00,
2013-05-08 19:16:00,78.6,53.6,30.01,NNW,337,0.0,0.0,42,0.00,,,0.00,WUHU21623XXSP,2013-05-09 00:16:00,
2013-05-08 19:21:00,77.9,53.5,30.00,NNW,337,0.0,0.0,43,0.00,,,0.00,WUHU21623XXSP,2013-05-09 00:21:00,
2013-05-08 19:26:00,77.4,54.3,30.01,NNW,337,0.0,0.0,45,0.00,,,0.00,WUHU21623XXSP,2013-05-09 00:26:00,
2013-05-08 19:31:00,76.8,53.8,30.00,NNW,337,0.0,0.0,45,0.00,,,0.00,WUHU21623XXSP,2013-05-09 00:31:00,
2013-05-08 19:36:00,75.9,53.6,30.00,NNW,337,0.0,0.0,46,0.00,,,0.00,WUHU21623XXSP,2013-05-09 00:36:00,
2013-05-08 19:41:00,75.4,53.7,30.00,NW,315,0.0,0.0,47,0.00,,,0.00,WUHU21623XXSP,2013-05-09 00:41:00,
2013-05-08 19:46:00,74.8,53.2,30.00,NW,315,0.0,0.0,47,0.00,,,0.00,WUHU21623XXSP,2013-05-09 00:46:00,
2013-05-08 19:51:00,74.3,52.7,30.00,NW,315,0.0,0.0,47,0.00,,,0.00,WUHU21623XXSP,2013-05-09 00:51:00,
2013-05-08 19:56:00,73.9,52.9,30.00,NW,315,0.0,0.0,48,0.00,,,0.00,WUHU21623XXSP,2013-05-09 00:56:00,
2013-05-08 20:01:00,73.0,53.3,30.00,NW,315,0.0,0.0,50,0.00,,,0.00,WUHU21623XXSP,2013-05-09 01:01:00,
2013-05-08 20:06:00,72.5,52.8,30.00,NW,315,0.0,0.0,50,0.00,,,0.00,WUHU21623XXSP,2013-05-09 01:06:00,
2013-05-08 20:11:00,72.0,52.8,30.00,NW,315,0.0,0.0,51,0.00,,,0.00,WUHU21623XXSP,2013-05-09 01:11:00,
2013-05-08 20:16:00,71.2,52.7,30.00,NW,315,0.0,0.0,52,0.00,,,0.00,WUHU21623XXSP,2013-05-09 01:16:00,
2013-05-08 20:21:00,70.7,52.7,30.00,NW,315,0.0,0.0,53,0.00,,,0.00,WUHU21623XXSP,2013-05-09 01:21:00,
2013-05-08 20:26:00,70.3,52.9,30.00,NW,315,0.0,0.0,54,0.00,,,0.00,WUHU21623XXSP,2013-05-09 01:26:00,
2013-05-08 20:31:00,69.6,52.7,30.00,NW,315,0.0,0.0,55,0.00,,,0.00,WUHU21623XXSP,2013-05-09 01:31:00,
2013-05-08 20:36:00,69.4,52.5,30.00,NW,315,0.0,0.0,55,0.00,,,0.00,WUHU21623XXSP,2013-05-09 01:36:00,
2013-05-08 20:41:00,69.1,52.2,30.01,NW,315,0.0,0.0,55,0.00,,,0.00,WUHU21623XXSP,2013-05-09 01:41:00,
2013-05-08 20:46:00,68.5,52.7,30.00,NW,315,0.0,0.0,57,0.00,,,0.00,WUHU21623XXSP,2013-05-09 01:46:00,
2013-05-08 20:51:00,68.2,53.3,30.01,NW,315,0.0,0.0,59,0.00,,,0.00,WUHU21623XXSP,2013-05-09 01:51:00,
2013-05-08 20:56:00,67.6,52.8,30.01,NW,315,0.0,0.0,59,0.00,,,0.00,WUHU21623XXSP,2013-05-09 01:56:00,
2013-05-08 21:01:00,67.3,53.0,30.00,NW,315,0.0,0.0,60,0.00,,,0.00,WUHU21623XXSP,2013-05-09 02:01:00,
2013-05-08 21:06:00,66.9,52.6,30.01,NW,315,0.0,0.0,60,0.00,,,0.00,WUHU21623XXSP,2013-05-09 02:06:00,
2013-05-08 21:11:00,66.6,53.1,30.01,NW,315,0.0,0.0,62,0.00,,,0.00,WUHU21623XXSP,2013-05-09 02:11:00,
2013-05-08 21:16:00,66.2,53.2,30.01,NW,315,0.0,0.0,63,0.00,,,0.00,WUHU21623XXSP,2013-05-09 02:16:00,
2013-05-08 21:21:00,65.8,53.3,30.01,NW,315,0.0,0.0,64,0.00,,,0.00,WUHU21623XXSP,2013-05-09 02:21:00,
2013-05-08 21:26:00,65.7,53.1,30.01,NW,315,0.0,0.0,64,0.00,,,0.00,WUHU21623XXSP,2013-05-09 02:26:00,
2013-05-08 21:30:00,65.3,52.8,30.02,NW,315,0.0,0.0,64,0.00,,,0.00,WUHU21623XXSP,2013-05-09 02:30:00,
2013-05-08 21:35:00,65.1,53.0,30.01,NW,315,0.0,0.0,65,0.00,,,0.00,WUHU21623XXSP,2013-05-09 02:35:00,
2013-05-08 21:41:00,64.9,52.8,30.02,NW,315,0.0,0.0,65,0.00,,,0.00,WUHU21623XXSP,2013-05-09 02:41:00,
2013-05-08 21:45:00,64.8,53.1,30.02,NW,315,0.0,0.0,66,0.00,,,0.00,WUHU21623XXSP,2013-05-09 02:45:00,
2013-05-08 21:51:00,64.6,52.9,30.02,NW,315,0.0,0.0,66,0.00,,,0.00,WUHU21623XXSP,2013-05-09 02:51:00,
2013-05-08 21:55:00,64.2,52.6,30.02,NW,315,0.0,0.0,66,0.00,,,0.00,WUHU21623XXSP,2013-05-09 02:55:00,
2013-05-08 22:00:00,64.0,52.8,30.02,NW,315,0.0,0.0,67,0.00,,,0.00,WUHU21623XXSP,2013-05-09 03:00:00,
2013-05-08 22:07:00,63.9,52.7,30.02,NW,315,0.0,0.0,67,0.00,,,0.00,WUHU21623XXSP,2013-05-09 03:07:00,
2013-05-08 22:12:00,63.5,52.3,30.01,NW,315,0.0,0.0,67,0.00,,,0.00,WUHU21623XXSP,2013-05-09 03:12:00,
2013-05-08 22:17:00,63.3,52.1,30.01,NW,315,0.0,0.0,67,0.00,,,0.00,WUHU21623XXSP,2013-05-09 03:17:00,
2013-05-08 22:22:00,63.0,52.6,30.02,NW,315,0.0,0.0,69,0.00,,,0.00,WUHU21623XXSP,2013-05-09 03:22:00,
2013-05-08 22:27:00,63.0,52.6,30.02,NW,315,0.0,0.0,69,0.00,,,0.00,WUHU21623XXSP,2013-05-09 03:27:00,
2013-05-08 22:32:00,62.8,52.4,30.01,NW,315,0.0,0.0,69,0.00,,,0.00,WUHU21623XXSP,2013-05-09 03:32:00,
2013-05-08 22:37:00,62.8,52.4,30.01,NW,315,0.0,0.0,69,0.00,,,0.00,WUHU21623XXSP,2013-05-09 03:37:00,
2013-05-08 22:42:00,62.6,52.7,30.01,NW,315,0.0,0.0,70,0.00,,,0.00,WUHU21623XXSP,2013-05-09 03:42:00,
2013-05-08 22:47:00,62.4,52.5,30.01,NNW,337,0.0,0.0,70,0.00,,,0.00,WUHU21623XXSP,2013-05-09 03:47:00,
2013-05-08 22:52:00,62.4,52.9,30.00,NNW,337,0.0,0.0,71,0.00,,,0.00,WUHU21623XXSP,2013-05-09 03:52:00,
2013-05-08 22:57:00,62.6,53.4,30.01,NNW,337,0.0,0.0,72,0.00,,,0.00,WUHU21623XXSP,2013-05-09 03:57:00,
2013-05-08 23:01:00,62.6,53.4,30.01,NNW,337,0.0,0.0,72,0.00,,,0.00,WUHU21623XXSP,2013-05-09 04:01:00,
2013-05-08 23:06:00,62.4,53.3,30.00,NNW,337,0.0,0.0,72,0.00,,,0.00,WUHU21623XXSP,2013-05-09 04:06:00,
2013-05-08 23:11:00,62.2,52.7,30.00,NNW,337,0.0,0.0,71,0.00,,,0.00,WUHU21623XXSP,2013-05-09 04:11:00,
2013-05-08 23:16:00,62.2,52.7,30.00,NNW,337,0.0,0.0,71,0.00,,,0.00,WUHU21623XXSP,2013-05-09 04:16:00,
2013-05-08 23:21:00,62.1,52.6,30.00,North,0,0.0,0.0,71,0.00,,,0.00,WUHU21623XXSP,2013-05-09 04:21:00,
2013-05-08 23:26:00,62.1,52.6,30.00,North,0,0.0,0.0,71,0.00,,,0.00,WUHU21623XXSP,2013-05-09 04:26:00,
2013-05-08 23:31:00,62.1,52.6,30.00,North,0,0.0,0.0,71,0.00,,,0.00,WUHU21623XXSP,2013-05-09 04:31:00,
2013-05-08 23:36:00,61.7,52.6,29.99,NNE,22,0.0,0.0,72,0.00,,,0.00,WUHU21623XXSP,2013-05-09 04:36:00,
2013-05-08 23:41:00,61.7,52.6,29.99,East,90,0.0,0.0,72,0.00,,,0.00,WUHU21623XXSP,2013-05-09 04:41:00,
2013-05-08 23:46:00,61.7,52.6,29.99,East,90,0.0,0.0,72,0.00,,,0.00,WUHU21623XXSP,2013-05-09 04:46:00,
2013-05-08 23:51:00,61.5,52.4,30.00,East,90,0.0,0.0,72,0.00,,,0.00,WUHU21623XXSP,2013-05-09 04:51:00,
2013-05-08 23:56:00,61.5,52.8,30.00,East,90,0.0,0.0,73,0.00,,,0.00,WUHU21623XXSP,2013-05-09 04:56:00,